createdAt,value
2019-04-27T00:09:50.325Z,100.0000
2019-04-27T00:20:04.444Z,100.0000
2019-04-27T00:36:23.782Z,100.0000
2019-04-27T00:52:43.622Z,100.0000
2019-04-27T01:00:54.122Z,98.8006
2019-04-27T01:17:14.119Z,98.5702
2019-04-27T01:25:24.601Z,98.4924
2019-04-27T01:49:53.990Z,98.6984
2019-04-27T01:58:04.675Z,98.7671
2019-04-27T02:14:23.814Z,98.4207
2019-04-27T02:30:44.106Z,97.4548
2019-04-27T02:36:52.887Z,97.1923
2019-04-27T03:19:43.420Z,96.0662
2019-04-27T03:27:53.963Z,96.0983
2019-04-27T03:32:04.767Z,96.6064
2019-04-27T03:48:25.917Z,96.7117
2019-04-27T04:02:43.943Z,95.6542
2019-04-27T04:19:03.967Z,96.6796
2019-04-27T04:43:33.314Z,95.4818
2019-04-27T04:53:45.132Z,94.9126
2019-04-27T04:59:54.204Z,95.6466
2019-04-27T05:02:01.839Z,96.1120
2019-04-27T05:36:53.495Z,94.3374
2019-04-27T05:45:03.920Z,93.4112
2019-04-27T05:51:13.489Z,94.1756
2019-04-27T06:21:53.870Z,92.2850
2019-04-27T06:30:05.031Z,90.0282
2019-04-27T06:36:13.843Z,92.1385
2019-04-27T06:46:28.791Z,93.3806
2019-04-27T06:54:40.366Z,93.4112
2019-04-27T06:56:44.690Z,94.2412
2019-04-27T07:02:55.313Z,94.6349
2019-04-27T07:07:01.680Z,93.2738
2019-04-27T07:13:11.285Z,94.5113
2019-04-27T07:15:15.566Z,93.5439
2019-04-27T07:17:19.206Z,94.5525
2019-04-27T07:19:23.237Z,93.5805
2019-04-27T07:27:33.764Z,94.6151
2019-04-27T07:37:48.847Z,94.5510
2019-04-27T07:50:04.170Z,96.2142
2019-04-27T07:54:10.977Z,96.1685
2019-04-27T07:56:15.282Z,96.7178
2019-04-27T08:00:22.004Z,96.6537
2019-04-27T08:02:25.402Z,96.4385
2019-04-27T08:06:31.236Z,96.9970
2019-04-27T08:08:34.698Z,97.5814
2019-04-27T08:10:39.177Z,97.8195
2019-04-27T08:14:46.168Z,96.9131
2019-04-27T08:29:03.696Z,96.6583
2019-04-27T08:45:24.044Z,93.0373
2019-04-27T08:53:34.664Z,94.1634
2019-04-27T08:59:43.445Z,92.4743
2019-04-27T09:16:03.332Z,91.3832
2019-04-27T09:24:14.415Z,91.1498
2019-04-27T09:48:44.460Z,85.1301
2019-04-27T10:17:24.165Z,81.4176
2019-04-27T10:33:45.849Z,78.4756
2019-04-27T11:22:43.744Z,74.9813
2019-04-27T11:30:55.049Z,72.6925
2019-04-27T11:37:03.419Z,73.5439
2019-04-27T11:53:25.997Z,76.3973
2019-04-27T11:59:34.453Z,73.5943
2019-04-27T12:05:42.526Z,70.7378
2019-04-27T12:07:47.848Z,73.9376
2019-04-27T12:11:55.619Z,71.2673
2019-04-27T12:43:45.886Z,81.7121
2019-04-27T12:48:13.296Z,78.1552
2019-04-27T13:09:25.650Z,70.0740
2019-04-27T13:23:45.727Z,69.1020
2019-04-27T13:29:53.942Z,71.1543
2019-04-27T13:36:07.289Z,67.2526
2019-04-27T13:40:13.280Z,66.0273
2019-04-27T13:48:23.769Z,67.0008
2019-04-27T13:56:34.876Z,67.8843
2019-04-27T14:04:46.893Z,70.1778
2019-04-27T14:27:13.898Z,85.4505
2019-04-27T14:35:24.360Z,76.9467
2019-04-27T14:59:54.341Z,80.7767
2019-04-27T15:06:03.912Z,88.4535
2019-04-27T15:08:09.658Z,89.4560
2019-04-27T15:10:16.129Z,91.3191
2019-04-27T15:12:25.195Z,92.7932
2019-04-27T15:14:31.062Z,94.5922
2019-04-27T15:16:37.894Z,94.6578
2019-04-27T15:18:44.564Z,94.5983
2019-04-27T15:20:48.693Z,94.6075
2019-04-27T15:22:56.672Z,95.5734
2019-04-27T15:25:12.894Z,95.1232
2019-04-27T15:27:10.271Z,91.4809
2019-04-27T15:29:14.568Z,91.0506
2019-04-27T15:31:26.347Z,92.5383
2019-04-27T15:33:28.991Z,91.6213
2019-04-27T15:35:35.417Z,89.7169
2019-04-27T15:37:42.185Z,91.4839
2019-04-27T15:39:45.620Z,91.7418
2019-04-27T15:41:49.953Z,91.7220
2019-04-27T15:43:54.052Z,92.1889
2019-04-27T15:45:58.714Z,91.9432
2019-04-27T15:48:03.045Z,92.8176
2019-04-27T15:50:07.919Z,93.0785
2019-04-27T15:52:11.477Z,93.0648
2019-04-27T15:54:15.202Z,94.9218
2019-04-27T15:56:21.561Z,93.9849
2019-04-27T15:58:26.126Z,93.9391
2019-04-27T16:00:30.473Z,94.1939
2019-04-27T16:02:34.838Z,91.9707
2019-04-27T16:04:39.996Z,92.9320
2019-04-27T16:06:48.759Z,93.4630
2019-04-27T16:08:52.206Z,94.3725
2019-04-27T16:10:56.402Z,94.0948
2019-04-27T16:13:06.609Z,93.2845
2019-04-27T16:15:08.507Z,93.2662
2019-04-27T16:17:11.917Z,91.2505
2019-04-27T16:19:15.332Z,91.9097
2019-04-27T16:21:20.072Z,93.5119
2019-04-27T16:23:28.220Z,93.3577
2019-04-27T16:25:45.312Z,93.0007
2019-04-27T16:27:41.743Z,91.9188
2019-04-27T16:29:45.759Z,93.0327
2019-04-27T16:31:49.174Z,91.7281
2019-04-27T16:33:54.114Z,92.8161
2019-04-27T16:36:06.681Z,93.2281
2019-04-27T16:38:10.736Z,93.7011
2019-04-27T16:40:17.616Z,92.0699
2019-04-27T16:42:23.181Z,92.1340
2019-04-27T16:44:27.555Z,90.3685
2019-04-27T16:46:34.803Z,89.4057
2019-04-27T16:48:40.804Z,90.3212
2019-04-27T16:50:44.869Z,89.2607
2019-04-27T16:52:56.547Z,89.7459
2019-04-27T16:54:59.002Z,89.6406
2019-04-27T16:57:05.475Z,86.8238
2019-04-27T16:59:33.965Z,86.1646
2019-04-27T17:01:19.434Z,86.2562
2019-04-27T17:03:23.857Z,84.0818
2019-04-27T17:05:30.922Z,84.0009
2019-04-27T17:07:37.530Z,82.3926
2019-04-27T17:09:46.178Z,81.9257
2019-04-27T17:11:51.796Z,82.9984
2019-04-27T17:13:56.068Z,83.4287
2019-04-27T17:16:00.200Z,82.8702
2019-04-27T17:18:04.244Z,84.2557
2019-04-27T17:20:08.524Z,84.6174
2019-04-27T17:22:14.755Z,83.5187
2019-04-27T17:24:19.638Z,83.9902
2019-04-27T17:26:24.141Z,84.7684
2019-04-27T17:28:28.346Z,83.5462
2019-04-27T17:30:39.828Z,83.0076
2019-04-27T17:32:40.804Z,82.9801
2019-04-27T17:34:44.866Z,83.0289
2019-04-27T17:36:54.499Z,81.4496
2019-04-27T17:38:58.440Z,81.7761
2019-04-27T17:41:04.728Z,82.2690
2019-04-27T17:43:11.157Z,83.8270
2019-04-27T17:45:15.254Z,84.8692
2019-04-27T17:47:20.071Z,86.3386
2019-04-27T17:49:28.099Z,87.5303
2019-04-27T17:51:35.321Z,88.0873
2019-04-27T17:53:40.690Z,87.9652
2019-04-27T17:55:44.723Z,87.8141
2019-04-27T17:57:49.117Z,87.0161
2019-04-27T17:59:59.002Z,85.7313
2019-04-27T18:02:04.617Z,86.3996
2019-04-27T18:04:10.639Z,86.2028
2019-04-27T18:06:14.322Z,85.9831
2019-04-27T18:08:24.595Z,86.5400
2019-04-27T18:10:28.162Z,87.3060
2019-04-27T18:12:32.370Z,86.2745
2019-04-27T18:14:39.454Z,87.3320
2019-04-27T18:16:44.626Z,86.5858
2019-04-27T18:18:48.995Z,86.2333
2019-04-27T18:20:52.572Z,86.4729
2019-04-27T18:22:57.995Z,86.1555
2019-04-27T18:25:06.239Z,87.5242
2019-04-27T18:27:10.957Z,86.3081
2019-04-27T18:29:15.270Z,87.0665
2019-04-27T18:31:18.832Z,86.8894
2019-04-27T18:33:22.993Z,87.6570
2019-04-27T18:35:27.960Z,88.4764
2019-04-27T18:37:33.839Z,88.1651
2019-04-27T18:39:40.821Z,89.3019
2019-04-27T18:41:50.576Z,88.4993
2019-04-27T18:43:55.813Z,89.0913
2019-04-27T18:46:02.373Z,88.6320
2019-04-27T18:48:13.350Z,89.2546
2019-04-27T18:50:17.764Z,89.4377
2019-04-27T18:52:22.215Z,89.1127
2019-04-27T18:54:25.712Z,87.1946
2019-04-27T18:56:33.463Z,87.7409
2019-04-27T18:58:38.956Z,88.0018
2019-04-27T19:00:42.508Z,87.6844
2019-04-27T19:02:49.990Z,88.5283
2019-04-27T19:04:54.485Z,87.7318
2019-04-27T19:06:58.512Z,88.6503
2019-04-27T19:09:04.825Z,88.0552
2019-04-27T19:11:09.278Z,87.3182
2019-04-27T19:13:13.866Z,87.8264
2019-04-27T19:15:18.452Z,89.2103
2019-04-27T19:17:22.051Z,88.5451
2019-04-27T19:19:28.046Z,89.1630
2019-04-27T19:21:32.654Z,89.8634
2019-04-27T19:23:40.259Z,90.1991
2019-04-27T19:25:44.587Z,89.4896
2019-04-27T19:27:58.120Z,91.2749
2019-04-27T19:30:01.691Z,90.5882
2019-04-27T19:32:07.900Z,91.6625
2019-04-27T19:34:12.296Z,91.3054
2019-04-27T19:36:16.762Z,91.5084
2019-04-27T19:38:21.143Z,91.9280
2019-04-27T19:40:24.577Z,92.5917
2019-04-27T19:42:28.957Z,92.1950
2019-04-27T19:44:32.384Z,92.4819
2019-04-27T19:46:35.802Z,92.3400
2019-04-27T19:48:39.841Z,92.2225
2019-04-27T19:50:43.228Z,91.5221
2019-04-27T19:52:47.645Z,92.3171
2019-04-27T19:54:52.199Z,92.1431
2019-04-27T19:56:56.357Z,91.7189
2019-04-27T19:59:00.504Z,92.3125
2019-04-27T20:01:12.031Z,92.9534
2019-04-27T20:03:13.123Z,92.8450
2019-04-27T20:05:18.648Z,93.1151
2019-04-27T20:07:22.266Z,93.3837
2019-04-27T20:09:26.609Z,93.9193
2019-04-27T20:11:30.946Z,93.9849
2019-04-27T20:13:35.607Z,94.8501
2019-04-27T20:15:40.643Z,95.1232
2019-04-27T20:17:46.918Z,94.8577
2019-04-27T20:19:51.578Z,94.7112
2019-04-27T20:21:55.804Z,94.2763
2019-04-27T20:23:59.259Z,94.2855
2019-04-27T20:26:03.223Z,93.2158
2019-04-27T20:28:06.943Z,94.6334
2019-04-27T20:30:11.273Z,95.4345
2019-04-27T20:32:14.451Z,95.7687
2019-04-27T20:34:17.913Z,96.4050
2019-04-27T20:36:21.767Z,95.1232
2019-04-27T20:38:25.845Z,95.0408
2019-04-27T20:40:29.302Z,95.2148
2019-04-27T20:42:32.752Z,95.4437
2019-04-27T20:44:35.854Z,95.1659
2019-04-27T20:46:41.370Z,95.5169
2019-04-27T20:48:46.116Z,96.0845
2019-04-27T20:50:51.307Z,95.1003
2019-04-27T20:52:57.863Z,94.0749
2019-04-27T20:55:01.948Z,95.0683
2019-04-27T20:57:05.410Z,95.3475
2019-04-27T20:59:10.819Z,94.5556
2019-04-27T21:01:14.982Z,94.2489
2019-04-27T21:03:18.419Z,94.2412
2019-04-27T21:05:21.821Z,93.6324
2019-04-27T21:07:26.209Z,94.3679
2019-04-27T21:09:29.672Z,94.4839
2019-04-27T21:11:33.739Z,94.1817
2019-04-27T21:13:38.175Z,93.5912
2019-04-27T21:15:42.217Z,91.1635
2019-04-27T21:17:45.740Z,93.2021
2019-04-27T21:19:49.167Z,94.2901
2019-04-27T21:21:53.604Z,95.0362
2019-04-27T21:23:57.027Z,94.4656
2019-04-27T21:26:02.122Z,94.2855
2019-04-27T21:28:15.322Z,94.5251
2019-04-27T21:30:15.598Z,94.3771
2019-04-27T21:32:19.858Z,94.5708
2019-04-27T21:34:23.972Z,94.5327
2019-04-27T21:36:27.668Z,94.0398
2019-04-27T21:38:32.198Z,94.9737
2019-04-27T21:40:36.450Z,94.6792
2019-04-27T21:42:41.229Z,94.5068
2019-04-27T21:44:45.482Z,94.6670
2019-04-27T21:46:48.883Z,94.3175
2019-04-27T21:48:53.235Z,94.1955
2019-04-27T21:50:57.516Z,94.1024
2019-04-27T21:53:02.500Z,92.7016
2019-04-27T21:55:07.265Z,93.3211
2019-04-27T21:57:12.798Z,90.6279
2019-04-27T21:59:16.996Z,90.7378
2019-04-27T22:01:21.600Z,91.6457
2019-04-27T22:03:25.327Z,91.9921
2019-04-27T22:05:31.379Z,92.1492
2019-04-27T22:07:37.502Z,92.6482
2019-04-27T22:09:43.273Z,92.8206
2019-04-27T22:11:47.762Z,92.7199
2019-04-27T22:13:51.961Z,92.8588
2019-04-27T22:15:56.276Z,93.1243
2019-04-27T22:18:00.677Z,91.3741
2019-04-27T22:20:06.641Z,91.0094
2019-04-27T22:22:12.587Z,90.6004
2019-04-27T22:24:16.863Z,89.1005
2019-04-27T22:26:21.412Z,87.9515
2019-04-27T22:28:25.547Z,88.2979
2019-04-27T22:30:29.128Z,88.4123
2019-04-27T22:32:33.453Z,89.0135
2019-04-27T22:34:37.790Z,86.3676
2019-04-27T22:36:41.928Z,85.5299
2019-04-27T22:38:46.146Z,86.9444
2019-04-27T22:40:50.875Z,86.4805
2019-04-27T22:42:55.446Z,86.8879
2019-04-27T22:45:01.251Z,86.0883
2019-04-27T22:47:04.834Z,86.3706
2019-04-27T22:49:08.249Z,86.2013
2019-04-27T22:51:12.217Z,86.4042
2019-04-27T22:53:16.433Z,87.0893
2019-04-27T22:55:21.978Z,87.3610
2019-04-27T22:57:26.239Z,86.1845
2019-04-27T22:59:31.651Z,88.0064
2019-04-27T23:01:35.831Z,88.2902
2019-04-27T23:03:41.436Z,86.7155
2019-04-27T23:05:45.530Z,87.8080
2019-04-27T23:07:51.253Z,86.9154
2019-04-27T23:09:55.200Z,86.6606
2019-04-27T23:11:59.556Z,87.3640
2019-04-27T23:14:02.974Z,88.7053
2019-04-27T23:16:07.009Z,87.3564
2019-04-27T23:18:11.366Z,88.8609
2019-04-27T23:20:15.385Z,89.3278
2019-04-27T23:22:21.283Z,89.0913
2019-04-27T23:24:25.512Z,87.1305
2019-04-27T23:26:28.499Z,87.2877
2019-04-27T23:28:31.888Z,87.4296
2019-04-27T23:30:35.476Z,87.2496
2019-04-27T23:32:41.250Z,87.1900
2019-04-27T23:34:45.434Z,85.6489
2019-04-27T23:36:49.461Z,85.8549
2019-04-27T23:38:53.828Z,86.7735
2019-04-27T23:40:57.261Z,87.0710
2019-04-27T23:43:01.686Z,86.4164
2019-04-27T23:45:06.053Z,88.3711
2019-04-27T23:47:09.472Z,87.6982
2019-04-27T23:49:12.967Z,88.1285
2019-04-27T23:51:16.968Z,89.5201
2019-04-27T23:53:21.877Z,89.2317
2019-04-27T23:55:26.524Z,88.3253
2019-04-27T23:57:31.661Z,88.3589
2019-04-27T23:59:35.725Z,88.3436
